Time;durP1;ratioP1;P1;durP2;ratioP2;P2;SDS_P1;SDS_P2;PMS_P1;PMS_P2;Temp;Humidity;BMP_temperature;BMP_pressure;BME280_temperature;BME280_humidity;BME280_pressure;Samples;Min_cycle;Max_cycle;Signal;HPM_P1;HPM_P2
2023/04/16 00:01:38;;;;;;;62.40;17.33;;;8.10;99.90;;;;;;5067027;28;20041;-64
2023/04/16 00:04:04;;;;;;;62.85;18.90;;;8.20;99.90;;;;;;5083843;28;20052;-64
2023/04/16 00:06:30;;;;;;;58.72;18.45;;;8.20;99.90;;;;;;5067764;28;20117;-64
2023/04/16 00:08:56;;;;;;;46.50;18.52;;;8.20;99.90;;;;;;5050560;28;20533;-64
2023/04/16 00:11:22;;;;;;;64.57;18.83;;;8.20;99.90;;;;;;5067302;28;20131;-64
2023/04/16 00:13:48;;;;;;;60.17;20.17;;;8.10;99.90;;;;;;5068716;28;20040;-64
2023/04/16 00:16:14;;;;;;;52.58;19.95;;;8.10;99.90;;;;;;5067746;28;20036;-64
2023/04/16 00:18:40;;;;;;;59.13;20.45;;;8.10;99.90;;;;;;5067925;28;20498;-64
2023/04/16 00:21:06;;;;;;;62.05;20.05;;;8.00;99.90;;;;;;5067875;28;20074;-64
2023/04/16 00:23:32;;;;;;;49.08;20.45;;;8.00;99.90;;;;;;5067764;28;20028;-64
2023/04/16 00:25:58;;;;;;;62.88;20.90;;;8.00;99.90;;;;;;5067204;28;20417;-64
2023/04/16 00:28:26;;;;;;;74.40;21.30;;;8.00;99.90;;;;;;5066639;28;20118;-64
2023/04/16 00:30:52;;;;;;;63.95;19.95;;;8.00;99.90;;;;;;5068896;28;20051;-64
2023/04/16 00:33:18;;;;;;;72.03;20.80;;;7.90;99.90;;;;;;5065938;28;20037;-64
2023/04/16 00:35:47;;;;;;;65.35;21.25;;;8.00;99.90;;;;;;5050166;28;20063;-64
2023/04/16 00:38:13;;;;;;;72.13;18.73;;;8.00;99.90;;;;;;5065967;28;20452;-64
2023/04/16 00:40:39;;;;;;;68.70;19.85;;;8.00;99.90;;;;;;5067587;28;20044;-64
2023/04/16 00:43:05;;;;;;;66.95;18.42;;;8.00;99.90;;;;;;5066797;28;20052;-64
2023/04/16 00:45:31;;;;;;;70.30;22.23;;;8.00;99.90;;;;;;5067022;28;20501;-64
2023/04/16 00:47:59;;;;;;;84.45;20.13;;;8.00;99.90;;;;;;5067653;28;20045;-64
2023/04/16 00:50:25;;;;;;;96.70;21.52;;;8.00;99.90;;;;;;5066578;28;20446;-64
2023/04/16 00:52:51;;;;;;;95.53;22.05;;;8.00;99.90;;;;;;5066334;28;20063;-65
2023/04/16 00:55:17;;;;;;;82.25;20.25;;;8.00;99.90;;;;;;5066769;28;20044;-64
2023/04/16 00:57:43;;;;;;;82.45;20.45;;;8.10;99.90;;;;;;5067866;28;20384;-64
2023/04/16 01:00:10;;;;;;;89.63;21.85;;;8.00;99.90;;;;;;5065785;28;20044;-65
2023/04/16 01:02:36;;;;;;;84.80;21.23;;;8.00;99.90;;;;;;5062614;28;20043;-64
2023/04/16 01:05:04;;;;;;;71.45;17.00;;;8.00;99.90;;;;;;5066866;28;20064;-64
2023/04/16 01:07:29;;;;;;;94.00;22.95;;;8.00;99.90;;;;;;5065239;28;20044;-64
2023/04/16 01:09:56;;;;;;;79.70;21.50;;;8.00;99.90;;;;;;5065880;28;20532;-64
2023/04/16 01:12:22;;;;;;;89.22;23.25;;;8.10;99.90;;;;;;5066860;28;20051;-64
2023/04/16 01:14:48;;;;;;;92.20;23.15;;;8.10;99.90;;;;;;5067524;28;20040;-64
2023/04/16 01:17:13;;;;;;;92.18;24.63;;;8.10;99.90;;;;;;5082433;28;20056;-64
2023/04/16 01:19:39;;;;;;;112.57;24.13;;;8.10;99.90;;;;;;5066537;28;20032;-64
2023/04/16 01:22:05;;;;;;;102.35;24.45;;;8.10;99.90;;;;;;5065775;28;20051;-64
2023/04/16 01:24:31;;;;;;;99.57;22.10;;;8.10;99.90;;;;;;5064754;28;20042;-64
2023/04/16 01:26:58;;;;;;;96.68;25.80;;;8.10;99.90;;;;;;5083091;28;20053;-64
2023/04/16 01:29:25;;;;;;;99.38;24.98;;;8.10;99.90;;;;;;5065819;28;20068;-64
2023/04/16 01:31:51;;;;;;;104.82;25.92;;;8.10;99.90;;;;;;5067639;28;20479;-64
2023/04/16 01:34:16;;;;;;;90.63;23.55;;;8.00;99.90;;;;;;5066775;28;20048;-64
2023/04/16 01:36:42;;;;;;;91.05;24.00;;;8.00;99.90;;;;;;5065987;28;20076;-64
2023/04/16 01:39:14;;;;;;;96.95;25.30;;;8.00;99.90;;;;;;5068176;28;20109;-64
2023/04/16 01:41:40;;;;;;;90.20;23.10;;;7.90;99.90;;;;;;5065004;28;20131;-65
2023/04/16 01:44:06;;;;;;;83.50;22.50;;;7.90;99.90;;;;;;5067459;28;20071;-64
2023/04/16 01:46:33;;;;;;;80.53;21.88;;;7.90;99.90;;;;;;5066245;28;20045;-64
2023/04/16 01:49:00;;;;;;;77.55;21.33;;;8.00;99.90;;;;;;5067186;28;20047;-65
2023/04/16 01:51:26;;;;;;;95.82;21.98;;;7.90;99.90;;;;;;5081211;28;20044;-64
2023/04/16 01:53:53;;;;;;;68.30;18.52;;;7.90;99.90;;;;;;5066358;28;20103;-64
2023/04/16 01:56:19;;;;;;;110.53;22.45;;;7.90;99.90;;;;;;5065141;28;20048;-64
2023/04/16 01:58:46;;;;;;;81.30;21.80;;;8.00;99.90;;;;;;5066338;28;20051;-64
2023/04/16 02:01:13;;;;;;;88.78;24.23;;;8.00;99.90;;;;;;5067352;28;20124;-64
2023/04/16 02:03:39;;;;;;;95.45;24.45;;;8.10;99.90;;;;;;5064057;28;20537;-64
2023/04/16 02:06:05;;;;;;;94.00;25.30;;;8.10;99.90;;;;;;5066371;28;20524;-65
2023/04/16 02:08:31;;;;;;;102.22;28.20;;;8.20;99.90;;;;;;5081264;28;20040;-64
2023/04/16 02:10:58;;;;;;;99.63;26.73;;;8.20;99.90;;;;;;5066877;28;20528;-65
2023/04/16 02:13:24;;;;;;;87.28;27.08;;;8.20;99.90;;;;;;5066861;28;20415;-64
2023/04/16 02:15:51;;;;;;;84.50;24.02;;;8.30;99.90;;;;;;5066481;28;20498;-64
2023/04/16 02:18:17;;;;;;;96.07;24.92;;;8.40;99.90;;;;;;5069934;28;20045;-64
2023/04/16 02:20:45;;;;;;;93.20;26.00;;;8.40;99.90;;;;;;5069662;28;20051;-64
2023/04/16 02:23:13;;;;;;;98.70;28.23;;;8.30;99.90;;;;;;5070900;28;20036;-64
2023/04/16 02:25:41;;;;;;;82.47;26.30;;;8.30;99.90;;;;;;5069879;28;20059;-64
2023/04/16 02:28:08;;;;;;;72.13;22.63;;;8.20;99.90;;;;;;5068585;28;20499;-64
2023/04/16 02:30:35;;;;;;;79.93;22.38;;;8.20;99.90;;;;;;5069570;28;20510;-64
2023/04/16 02:33:04;;;;;;;76.15;22.77;;;8.20;99.90;;;;;;5070559;28;20542;-64
2023/04/16 02:35:31;;;;;;;77.30;22.40;;;8.20;99.90;;;;;;5070648;28;20048;-64
2023/04/16 02:37:57;;;;;;;75.45;23.52;;;8.10;99.90;;;;;;5069359;28;20057;-64
2023/04/16 02:40:23;;;;;;;98.35;23.50;;;8.10;99.90;;;;;;5069822;28;20074;-64
2023/04/16 02:42:49;;;;;;;70.82;22.73;;;8.10;99.90;;;;;;5067729;28;20163;-64
2023/04/16 02:45:15;;;;;;;70.15;21.45;;;8.00;99.90;;;;;;5069639;28;20127;-64
2023/04/16 02:47:41;;;;;;;81.15;21.77;;;8.00;99.90;;;;;;5069581;28;20471;-64
2023/04/16 02:50:07;;;;;;;70.65;21.02;;;8.00;99.90;;;;;;5068585;28;20051;-64
2023/04/16 02:52:33;;;;;;;51.75;20.25;;;7.90;99.90;;;;;;5070167;28;20525;-64
2023/04/16 02:54:59;;;;;;;65.63;19.45;;;7.90;99.90;;;;;;5084945;28;20044;-64
2023/04/16 02:57:25;;;;;;;68.07;20.23;;;7.90;99.90;;;;;;5069728;28;20048;-65
2023/04/16 02:59:50;;;;;;;62.90;19.42;;;7.80;99.90;;;;;;5068787;28;20032;-64
2023/04/16 03:02:16;;;;;;;62.17;19.05;;;7.80;99.90;;;;;;5070401;28;20127;-64
2023/04/16 03:04:42;;;;;;;54.28;19.13;;;7.80;99.90;;;;;;5068934;28;20102;-64
2023/04/16 03:07:08;;;;;;;58.25;19.50;;;7.80;99.90;;;;;;5068039;28;20139;-64
2023/04/16 03:09:34;;;;;;;54.95;18.55;;;7.70;99.90;;;;;;5068316;28;20475;-64
2023/04/16 03:12:03;;;;;;;48.35;17.55;;;7.70;99.90;;;;;;5068192;28;20075;-64
2023/04/16 03:14:29;;;;;;;58.28;18.25;;;7.60;99.90;;;;;;5069352;28;20510;-64
2023/04/16 03:16:55;;;;;;;60.95;17.75;;;7.60;99.90;;;;;;5068180;28;20521;-64
2023/04/16 03:19:21;;;;;;;58.42;18.35;;;7.60;99.90;;;;;;5069456;28;20076;-64
2023/04/16 03:21:47;;;;;;;57.58;18.50;;;7.60;99.90;;;;;;5084015;28;20083;-65
2023/04/16 03:24:13;;;;;;;64.93;21.00;;;7.60;99.90;;;;;;5069514;28;20050;-64
2023/04/16 03:26:39;;;;;;;62.17;21.48;;;7.60;99.90;;;;;;5068848;28;20040;-64
2023/04/16 03:29:04;;;;;;;58.67;19.75;;;7.60;99.90;;;;;;5068057;28;20056;-64
2023/04/16 03:31:30;;;;;;;56.72;20.33;;;7.60;99.90;;;;;;5084184;28;20053;-64
2023/04/16 03:33:56;;;;;;;58.70;20.15;;;7.50;99.90;;;;;;5067263;28;20109;-64
2023/04/16 03:36:22;;;;;;;43.88;19.67;;;7.50;99.90;;;;;;5069002;28;20048;-64
2023/04/16 03:38:48;;;;;;;50.80;20.13;;;7.50;99.90;;;;;;5068294;28;20383;-64
2023/04/16 03:41:14;;;;;;;43.30;19.35;;;7.50;99.90;;;;;;5069281;28;20044;-64
2023/04/16 03:43:40;;;;;;;48.70;20.45;;;7.50;99.90;;;;;;5068837;28;20044;-64
2023/04/16 03:46:06;;;;;;;44.53;20.42;;;7.50;99.90;;;;;;5069269;28;20121;-64
2023/04/16 03:48:31;;;;;;;65.20;20.17;;;7.50;99.90;;;;;;5067864;28;20075;-64
2023/04/16 03:50:57;;;;;;;51.85;19.75;;;7.60;99.90;;;;;;5068622;28;20048;-65
2023/04/16 03:53:23;;;;;;;47.78;20.15;;;7.50;99.90;;;;;;5068866;28;20036;-64
2023/04/16 03:55:50;;;;;;;51.80;20.88;;;7.50;99.90;;;;;;5067078;28;20045;-64
2023/04/16 03:58:16;;;;;;;49.58;20.23;;;7.50;99.90;;;;;;5068191;28;20040;-64
2023/04/16 04:00:42;;;;;;;46.40;19.70;;;7.50;99.90;;;;;;5067932;28;20055;-64
2023/04/16 04:03:09;;;;;;;43.75;20.58;;;7.50;99.90;;;;;;5066696;28;20545;-64
2023/04/16 04:05:36;;;;;;;43.10;20.42;;;7.50;99.90;;;;;;5067546;28;20440;-64
2023/04/16 04:08:03;;;;;;;39.95;20.00;;;7.40;99.90;;;;;;5068641;28;20060;-64
2023/04/16 04:10:31;;;;;;;36.85;19.90;;;7.40;99.90;;;;;;5068210;28;20033;-64
2023/04/16 04:12:57;;;;;;;39.00;21.10;;;7.40;99.90;;;;;;5067759;28;20044;-64
2023/04/16 04:15:23;;;;;;;39.47;20.63;;;7.40;99.90;;;;;;5084170;28;20127;-64
2023/04/16 04:17:49;;;;;;;36.60;19.75;;;7.40;99.90;;;;;;5066962;28;20041;-64
2023/04/16 04:20:15;;;;;;;42.67;20.90;;;7.30;99.90;;;;;;5068530;28;20315;-64
2023/04/16 04:22:40;;;;;;;35.28;19.65;;;7.40;99.90;;;;;;5066088;28;20127;-65
2023/04/16 04:25:09;;;;;;;33.95;20.40;;;7.30;99.90;;;;;;5068428;28;20083;-65
2023/04/16 04:27:34;;;;;;;33.35;19.70;;;7.30;99.90;;;;;;5067355;28;20056;-65
2023/04/16 04:30:01;;;;;;;41.53;21.08;;;7.30;99.90;;;;;;5067424;28;20056;-65
2023/04/16 04:32:27;;;;;;;35.42;20.50;;;7.30;99.90;;;;;;5067666;28;20068;-65
2023/04/16 04:34:52;;;;;;;37.65;21.02;;;7.30;99.90;;;;;;5067403;28;20059;-65
2023/04/16 04:37:18;;;;;;;36.58;19.73;;;7.40;99.90;;;;;;5066475;28;20037;-65
2023/04/16 04:39:44;;;;;;;32.65;19.88;;;7.40;99.90;;;;;;5066750;28;20052;-65
2023/04/16 04:42:09;;;;;;;31.10;18.45;;;7.30;99.90;;;;;;5068092;28;20131;-65
2023/04/16 04:44:35;;;;;;;30.58;19.38;;;7.20;99.90;;;;;;5066715;28;20041;-65
2023/04/16 04:47:01;;;;;;;32.72;19.73;;;7.20;99.90;;;;;;5068189;28;20486;-65
2023/04/16 04:49:26;;;;;;;33.78;20.05;;;7.20;99.90;;;;;;5082963;28;20056;-65
2023/04/16 04:51:52;;;;;;;31.27;20.15;;;7.20;99.90;;;;;;5067028;28;20070;-65
2023/04/16 04:54:18;;;;;;;36.55;20.27;;;7.20;99.90;;;;;;5083774;28;20046;-65
2023/04/16 04:56:46;;;;;;;38.85;22.00;;;7.30;99.90;;;;;;5066502;28;20048;-65
2023/04/16 04:59:12;;;;;;;44.28;21.15;;;7.30;99.90;;;;;;5067993;28;20587;-65
2023/04/16 05:01:38;;;;;;;41.92;21.33;;;7.40;99.90;;;;;;5064694;28;20060;-65
2023/04/16 05:04:04;;;;;;;48.13;22.05;;;7.40;99.90;;;;;;5057493;28;20132;-65
2023/04/16 05:06:30;;;;;;;40.40;22.52;;;7.50;99.90;;;;;;5060508;28;20110;-65
2023/04/16 05:08:56;;;;;;;36.67;21.45;;;7.60;99.90;;;;;;5050110;28;20052;-65
2023/04/16 05:11:21;;;;;;;36.85;22.00;;;7.70;99.90;;;;;;5067373;28;20524;-65
2023/04/16 05:13:47;;;;;;;35.33;22.40;;;7.70;99.90;;;;;;5065228;28;20079;-65
2023/04/16 05:16:13;;;;;;;36.53;20.60;;;7.70;99.90;;;;;;5067928;28;20037;-65
2023/04/16 05:18:38;;;;;;;36.80;22.08;;;7.80;99.90;;;;;;5066093;28;20041;-64
2023/04/16 05:21:04;;;;;;;39.28;21.08;;;7.80;99.90;;;;;;5067822;28;20033;-64
2023/04/16 05:23:30;;;;;;;34.30;20.25;;;7.80;99.90;;;;;;5081467;28;20075;-65
2023/04/16 05:25:56;;;;;;;39.58;21.40;;;7.80;99.90;;;;;;5067071;28;20052;-65
2023/04/16 05:28:22;;;;;;;37.42;21.83;;;7.90;99.90;;;;;;5066921;28;20037;-65
2023/04/16 05:30:47;;;;;;;43.75;22.33;;;7.90;99.90;;;;;;5066754;28;20098;-65
2023/04/16 05:33:13;;;;;;;33.72;20.65;;;8.00;99.90;;;;;;5067151;28;20189;-65
2023/04/16 05:35:39;;;;;;;34.85;20.40;;;8.00;99.90;;;;;;5081123;28;20047;-64
2023/04/16 05:38:04;;;;;;;34.47;21.52;;;8.10;99.90;;;;;;5066774;28;20036;-65
2023/04/16 05:40:31;;;;;;;38.45;21.15;;;8.00;99.90;;;;;;5065946;28;20052;-65
2023/04/16 05:42:56;;;;;;;36.72;19.98;;;8.10;99.90;;;;;;5065155;28;20032;-65
2023/04/16 05:45:22;;;;;;;34.33;21.13;;;8.10;99.90;;;;;;5066761;28;20052;-64
2023/04/16 05:47:48;;;;;;;31.50;20.45;;;8.10;99.90;;;;;;5065869;28;20102;-66
2023/04/16 05:50:13;;;;;;;39.35;20.92;;;8.20;99.90;;;;;;5066933;28;20043;-65
2023/04/16 05:52:39;;;;;;;33.78;20.25;;;8.20;99.90;;;;;;5065021;28;20448;-65
2023/04/16 05:55:06;;;;;;;34.13;21.35;;;8.20;99.90;;;;;;5049758;28;20079;-65
2023/04/16 05:57:32;;;;;;;45.42;22.10;;;8.30;99.90;;;;;;5065748;28;20059;-65
2023/04/16 05:59:58;;;;;;;34.30;20.20;;;8.30;99.90;;;;;;5067579;28;20386;-64
2023/04/16 06:02:24;;;;;;;39.35;20.73;;;8.40;99.90;;;;;;5080418;28;20105;-65
2023/04/16 06:04:49;;;;;;;45.40;22.38;;;8.40;99.90;;;;;;5064974;28;20483;-65
2023/04/16 06:07:15;;;;;;;40.30;20.23;;;8.50;99.90;;;;;;5066886;28;20040;-65
2023/04/16 06:09:41;;;;;;;38.50;21.13;;;8.50;99.90;;;;;;5065931;28;20454;-65
2023/04/16 06:12:07;;;;;;;44.65;21.52;;;8.60;99.90;;;;;;5067235;28;20040;-65
2023/04/16 06:14:33;;;;;;;41.13;20.83;;;8.60;99.90;;;;;;5065689;28;20036;-65
2023/04/16 06:16:58;;;;;;;41.38;20.50;;;8.70;99.90;;;;;;5083002;28;20056;-64
2023/04/16 06:19:24;;;;;;;39.03;19.73;;;8.70;99.90;;;;;;5065509;28;20355;-65
2023/04/16 06:21:50;;;;;;;40.92;18.88;;;8.70;99.90;;;;;;5067276;28;20048;-65
2023/04/16 06:24:17;;;;;;;53.22;20.95;;;8.80;99.90;;;;;;5065543;28;20037;-65
2023/04/16 06:26:43;;;;;;;41.05;19.27;;;8.80;99.90;;;;;;5066348;28;20045;-65
2023/04/16 06:29:10;;;;;;;42.97;18.52;;;8.90;99.90;;;;;;5066354;28;20053;-64
2023/04/16 06:31:36;;;;;;;39.40;18.75;;;8.90;99.90;;;;;;5065522;28;20513;-65
2023/04/16 06:34:02;;;;;;;39.30;17.88;;;9.00;99.90;;;;;;5066615;28;20045;-64
2023/04/16 06:36:28;;;;;;;46.03;17.60;;;8.90;99.90;;;;;;5080551;28;20119;-65
2023/04/16 06:38:53;;;;;;;35.90;17.90;;;8.90;99.90;;;;;;5063984;28;20036;-65
2023/04/16 06:41:21;;;;;;;45.78;18.45;;;9.00;99.90;;;;;;5064825;28;20510;-65
2023/04/16 06:43:47;;;;;;;41.38;18.85;;;9.00;99.90;;;;;;5066099;28;20048;-65
2023/04/16 06:46:13;;;;;;;50.72;18.40;;;9.10;99.90;;;;;;5066662;28;20040;-65
2023/04/16 06:48:38;;;;;;;33.50;17.83;;;9.10;99.90;;;;;;5065362;28;20097;-65
2023/04/16 06:51:04;;;;;;;44.53;17.95;;;9.10;99.90;;;;;;5067119;28;20123;-65
2023/04/16 06:53:30;;;;;;;43.55;17.88;;;9.20;99.90;;;;;;5063934;28;20044;-64
2023/04/16 06:55:56;;;;;;;47.10;17.35;;;9.20;99.90;;;;;;5065903;28;20052;-65
2023/04/16 06:58:22;;;;;;;38.78;17.15;;;9.30;99.90;;;;;;5065008;28;20041;-65
2023/04/16 07:00:47;;;;;;;49.22;18.13;;;9.30;99.90;;;;;;5059276;28;20044;-65
2023/04/16 07:03:14;;;;;;;39.72;16.42;;;9.40;99.90;;;;;;5063682;28;20072;-65
2023/04/16 07:05:40;;;;;;;41.13;16.58;;;9.40;99.90;;;;;;5065787;28;20044;-65
2023/04/16 07:08:05;;;;;;;36.05;14.95;;;9.40;99.90;;;;;;5068851;28;20044;-65
2023/04/16 07:10:31;;;;;;;37.42;15.82;;;9.40;99.90;;;;;;5065227;28;20051;-65
2023/04/16 07:12:57;;;;;;;36.17;14.57;;;9.50;99.90;;;;;;5053498;28;20435;-65
2023/04/16 07:15:23;;;;;;;37.92;15.52;;;9.40;99.90;;;;;;5070592;28;20119;-64
2023/04/16 07:17:48;;;;;;;40.72;15.27;;;9.40;99.90;;;;;;5055880;28;20475;-65
2023/04/16 07:20:14;;;;;;;37.63;14.77;;;9.40;99.90;;;;;;5061199;28;20091;-64
2023/04/16 07:22:40;;;;;;;34.63;14.85;;;9.50;99.90;;;;;;5058178;28;20044;-65
2023/04/16 07:25:06;;;;;;;41.83;15.32;;;9.50;99.90;;;;;;5061519;28;20036;-65
2023/04/16 07:27:32;;;;;;;57.13;16.33;;;9.50;99.90;;;;;;5064840;28;20049;-65
2023/04/16 07:29:58;;;;;;;43.08;15.82;;;9.60;99.90;;;;;;5061340;28;20139;-64
2023/04/16 07:32:24;;;;;;;48.03;16.60;;;9.60;99.90;;;;;;5057844;28;20059;-64
2023/04/16 07:34:50;;;;;;;44.65;16.33;;;9.70;99.90;;;;;;5060437;28;20044;-64
2023/04/16 07:37:16;;;;;;;35.20;13.63;;;9.80;99.90;;;;;;5081200;28;20083;-64
2023/04/16 07:39:41;;;;;;;41.55;14.77;;;9.80;99.90;;;;;;5054104;28;20112;-64
2023/04/16 07:42:07;;;;;;;37.75;14.23;;;9.90;99.90;;;;;;5075512;28;20049;-64
2023/04/16 07:44:33;;;;;;;41.78;14.40;;;10.00;99.90;;;;;;5065158;28;20048;-64
2023/04/16 07:46:58;;;;;;;44.20;15.75;;;10.00;99.90;;;;;;5052093;28;20052;-64
2023/04/16 07:49:24;;;;;;;45.03;14.95;;;10.20;99.90;;;;;;5063549;28;20044;-64
2023/04/16 07:51:50;;;;;;;42.08;15.40;;;10.30;99.90;;;;;;5063136;28;20033;-64
2023/04/16 07:54:16;;;;;;;49.40;15.52;;;10.40;99.90;;;;;;5054697;28;20037;-64
2023/04/16 07:56:41;;;;;;;46.53;14.82;;;10.40;99.90;;;;;;5058923;28;20145;-64
2023/04/16 07:59:07;;;;;;;49.30;13.38;;;10.40;99.90;;;;;;5061185;28;20522;-64
2023/04/16 08:01:33;;;;;;;49.88;13.95;;;10.50;99.90;;;;;;5061363;28;20041;-64
2023/04/16 08:03:58;;;;;;;48.58;15.68;;;10.50;99.90;;;;;;5054612;28;20073;-64
2023/04/16 08:06:25;;;;;;;42.08;13.50;;;10.40;99.90;;;;;;5059346;28;20348;-64
2023/04/16 08:08:51;;;;;;;38.65;13.50;;;10.40;99.90;;;;;;5054902;28;20040;-64
2023/04/16 08:11:17;;;;;;;49.25;14.73;;;10.50;99.90;;;;;;5063616;28;20071;-64
2023/04/16 08:13:42;;;;;;;42.40;12.82;;;10.50;99.90;;;;;;5064939;28;20071;-64
2023/04/16 08:16:08;;;;;;;34.95;12.52;;;10.60;99.90;;;;;;5058009;28;20386;-64
2023/04/16 08:18:34;;;;;;;40.33;12.40;;;10.60;99.90;;;;;;5065194;28;20055;-64
2023/04/16 08:21:00;;;;;;;45.10;13.88;;;10.70;99.90;;;;;;5059279;28;20395;-64
2023/04/16 08:23:26;;;;;;;43.30;13.25;;;10.70;99.90;;;;;;5063485;28;20041;-64
2023/04/16 08:25:51;;;;;;;42.53;12.02;;;10.80;99.90;;;;;;5059207;28;20972;-64
2023/04/16 08:28:17;;;;;;;41.60;13.70;;;11.00;99.90;;;;;;5062885;28;20094;-64
2023/04/16 08:30:44;;;;;;;49.22;14.32;;;11.20;99.90;;;;;;5073162;28;20053;-64
2023/04/16 08:33:10;;;;;;;40.90;13.30;;;11.20;99.90;;;;;;5053049;28;20052;-64
2023/04/16 08:35:36;;;;;;;41.38;12.85;;;11.10;99.90;;;;;;5053470;28;20037;-64
2023/04/16 08:38:03;;;;;;;41.95;13.50;;;11.00;99.90;;;;;;5054711;28;20084;-64
2023/04/16 08:40:30;;;;;;;43.63;11.55;;;11.10;99.90;;;;;;5052736;28;20137;-65
2023/04/16 08:42:59;;;;;;;34.30;12.65;;;11.10;99.90;;;;;;5053159;28;20494;-63
2023/04/16 08:45:26;;;;;;;42.08;12.15;;;11.30;99.90;;;;;;5051142;28;20520;-64
2023/04/16 08:47:52;;;;;;;38.75;11.93;;;11.20;99.90;;;;;;5055743;28;20101;-64
2023/04/16 08:50:25;;;;;;;34.22;12.10;;;11.20;99.90;;;;;;5052005;28;20037;-63
2023/04/16 08:52:56;;;;;;;32.58;11.02;;;11.30;99.90;;;;;;5083097;28;20047;-63
2023/04/16 08:55:28;;;;;;;39.40;12.30;;;11.30;99.90;;;;;;5052178;28;20391;-63
2023/04/16 08:57:57;;;;;;;33.95;11.73;;;11.20;99.90;;;;;;5071290;28;20044;-63
2023/04/16 09:00:24;;;;;;;32.78;12.00;;;11.00;99.90;;;;;;5053853;28;20044;-63
2023/04/16 09:02:51;;;;;;;40.67;12.68;;;11.00;99.90;;;;;;5061693;28;20051;-63
2023/04/16 09:05:19;;;;;;;36.22;12.18;;;11.10;99.90;;;;;;5057336;28;20135;-63
2023/04/16 09:07:46;;;;;;;39.13;11.18;;;11.30;99.90;;;;;;5064876;28;20096;-63
2023/04/16 09:10:14;;;;;;;38.60;11.43;;;11.30;99.90;;;;;;5062808;28;20052;-63
2023/04/16 09:12:41;;;;;;;32.50;11.48;;;11.40;99.90;;;;;;5061879;28;20498;-63
2023/04/16 09:15:10;;;;;;;25.52;10.40;;;11.30;99.90;;;;;;5069688;28;20059;-63
2023/04/16 09:17:36;;;;;;;26.90;11.15;;;11.40;99.90;;;;;;5065057;28;20104;-63
2023/04/16 09:20:07;;;;;;;28.85;10.70;;;11.30;99.90;;;;;;5075129;28;20064;-63
2023/04/16 09:22:37;;;;;;;32.00;10.98;;;11.10;99.90;;;;;;5065818;28;20048;-63
2023/04/16 09:25:03;;;;;;;36.22;10.45;;;11.20;99.90;;;;;;5052079;28;20044;-63
2023/04/16 09:27:30;;;;;;;27.08;10.75;;;11.10;99.90;;;;;;5060204;28;20044;-63
2023/04/16 09:29:55;;;;;;;39.72;12.13;;;11.10;99.90;;;;;;5048850;28;20100;-63
2023/04/16 09:32:26;;;;;;;28.83;9.85;;;11.10;99.90;;;;;;5081290;28;20080;-63
2023/04/16 09:35:01;;;;;;;38.80;10.57;;;11.00;99.90;;;;;;5051505;28;20041;-63
2023/04/16 09:37:28;;;;;;;41.58;11.40;;;11.00;99.90;;;;;;5062615;28;20462;-63
2023/04/16 09:40:02;;;;;;;34.30;11.20;;;11.20;99.90;;;;;;5061056;28;20041;-63
2023/04/16 09:42:34;;;;;;;32.78;10.98;;;11.40;99.90;;;;;;5058473;28;20450;-63
2023/04/16 09:45:00;;;;;;;33.28;10.95;;;11.60;99.90;;;;;;5051419;28;20041;-63
2023/04/16 09:47:40;;;;;;;40.22;10.88;;;11.70;99.90;;;;;;5050368;28;20051;-63
2023/04/16 09:50:08;;;;;;;31.50;10.65;;;11.70;99.90;;;;;;5055401;28;20465;-62
2023/04/16 09:52:39;;;;;;;34.67;10.95;;;11.80;99.90;;;;;;5059737;28;20032;-63
2023/04/16 09:55:05;;;;;;;29.85;10.02;;;11.90;99.90;;;;;;5055794;28;20045;-63
2023/04/16 09:57:31;;;;;;;33.42;10.05;;;12.00;99.90;;;;;;5059391;28;20071;-63
2023/04/16 10:00:06;;;;;;;32.13;10.55;;;12.00;99.90;;;;;;5060491;28;20048;-63
2023/04/16 10:02:33;;;;;;;30.80;10.27;;;12.10;99.90;;;;;;5063906;28;20049;-62
2023/04/16 10:05:04;;;;;;;41.60;10.55;;;12.00;99.90;;;;;;5062819;28;20090;-63
2023/04/16 10:07:34;;;;;;;32.15;10.52;;;12.10;99.90;;;;;;5062236;28;20132;-63
2023/04/16 10:10:01;;;;;;;37.08;8.88;;;12.20;99.90;;;;;;5060809;28;20045;-63
2023/04/16 10:12:28;;;;;;;32.20;10.60;;;12.40;99.90;;;;;;5064522;28;20037;-63
2023/04/16 10:14:54;;;;;;;31.73;9.57;;;12.40;99.90;;;;;;5066063;28;20494;-63
2023/04/16 10:17:20;;;;;;;34.05;9.57;;;12.50;99.90;;;;;;5062308;28;20041;-63
2023/04/16 10:19:46;;;;;;;28.70;9.70;;;12.60;99.90;;;;;;5067092;28;20029;-63
2023/04/16 10:22:12;;;;;;;29.35;9.55;;;12.70;99.90;;;;;;5063982;28;20048;-63
2023/04/16 10:24:39;;;;;;;34.05;10.52;;;12.60;99.90;;;;;;5064808;28;20091;-63
2023/04/16 10:27:05;;;;;;;28.42;10.25;;;12.40;99.90;;;;;;5066224;28;20410;-63
2023/04/16 10:29:32;;;;;;;31.33;10.52;;;12.30;99.90;;;;;;5064655;28;20061;-66
2023/04/16 10:32:00;;;;;;;32.17;9.63;;;12.20;99.90;;;;;;5059106;28;20044;-63
2023/04/16 10:34:27;;;;;;;34.22;9.88;;;12.00;99.90;;;;;;5063654;28;20049;-63
2023/04/16 10:36:54;;;;;;;35.72;11.10;;;11.90;99.90;;;;;;5054797;28;20122;-63
2023/04/16 10:39:23;;;;;;;31.92;10.52;;;11.70;99.90;;;;;;5062301;28;20032;-63
2023/04/16 10:41:50;;;;;;;33.90;9.80;;;11.60;99.90;;;;;;5057186;28;20047;-63
2023/04/16 10:44:18;;;;;;;44.03;10.00;;;11.70;99.90;;;;;;5057569;28;20557;-63
2023/04/16 10:46:48;;;;;;;45.38;10.02;;;11.60;99.90;;;;;;5055919;28;20041;-63
2023/04/16 10:49:24;;;;;;;40.80;11.27;;;11.70;99.90;;;;;;5064024;28;20056;-63
2023/04/16 10:51:53;;;;;;;34.55;9.73;;;11.60;99.90;;;;;;5053945;28;20052;-63
2023/04/16 10:54:22;;;;;;;35.83;10.32;;;11.50;99.90;;;;;;5053451;28;20128;-63
2023/04/16 10:56:49;;;;;;;29.45;9.98;;;11.60;99.90;;;;;;5054950;28;20155;-63
2023/04/16 10:59:19;;;;;;;35.20;10.27;;;11.60;99.90;;;;;;5055071;28;20052;-63
2023/04/16 11:01:48;;;;;;;33.10;10.00;;;11.60;99.90;;;;;;5060455;28;20036;-63
2023/04/16 11:04:20;;;;;;;28.13;8.88;;;11.60;99.90;;;;;;5050404;28;20037;-63
2023/04/16 11:07:06;;;;;;;33.00;10.57;;;11.60;99.90;;;;;;5056445;28;20052;-63
2023/04/16 11:09:52;;;;;;;37.45;11.30;;;11.60;99.90;;;;;;5056731;28;20116;-63
2023/04/16 11:12:40;;;;;;;33.83;10.48;;;11.90;99.90;;;;;;5069283;28;20052;-63
2023/04/16 11:15:07;;;;;;;30.92;9.77;;;12.00;99.90;;;;;;5069821;28;20048;-63
2023/04/16 11:17:44;;;;;;;34.90;10.40;;;12.10;99.90;;;;;;5064825;28;20051;-63
2023/04/16 11:20:15;;;;;;;28.30;11.15;;;12.20;99.90;;;;;;5066376;28;20053;-62
2023/04/16 11:22:42;;;;;;;37.45;10.93;;;12.20;99.90;;;;;;5057735;28;20479;-63
2023/04/16 11:25:08;;;;;;;28.27;10.32;;;12.20;99.90;;;;;;5065977;28;20044;-63
2023/04/16 11:27:34;;;;;;;24.65;10.00;;;12.30;99.90;;;;;;5081506;28;20528;-62
2023/04/16 11:30:03;;;;;;;26.13;9.05;;;12.20;99.90;;;;;;5067320;28;20078;-63
2023/04/16 11:32:36;;;;;;;30.48;10.82;;;11.90;99.90;;;;;;5068493;28;20124;-63
2023/04/16 11:35:12;;;;;;;29.42;10.40;;;11.90;99.90;;;;;;5062789;28;20425;-63
2023/04/16 11:37:38;;;;;;;24.60;10.40;;;11.90;99.90;;;;;;5067014;28;20043;-63
2023/04/16 11:40:11;;;;;;;40.20;10.43;;;12.00;99.90;;;;;;5063416;28;20037;-63
2023/04/16 11:42:41;;;;;;;25.17;9.63;;;11.80;99.90;;;;;;5066754;28;20115;-63
2023/04/16 11:45:07;;;;;;;;;;;11.70;99.90;;;;;;5065946;28;20132;-63
2023/04/16 11:47:50;;;;;;;35.35;10.05;;;11.50;99.90;;;;;;5065118;28;19929;-63
2023/04/16 11:50:24;;;;;;;34.75;10.82;;;11.70;99.90;;;;;;5063278;28;20101;-63
2023/04/16 11:52:51;;;;;;;36.35;10.35;;;11.70;99.90;;;;;;5065546;28;20551;-63
2023/04/16 11:55:18;;;;;;;29.52;10.32;;;11.70;99.90;;;;;;5062897;28;20044;-63
2023/04/16 11:57:44;;;;;;;25.52;10.98;;;11.70;99.90;;;;;;5066444;28;20049;-63
2023/04/16 12:00:14;;;;;;;37.95;10.55;;;11.70;99.90;;;;;;5062989;28;20115;-63
2023/04/16 12:02:45;;;;;;;34.22;10.23;;;11.80;99.90;;;;;;5066521;28;20482;-62
2023/04/16 12:05:32;;;;;;;34.13;10.35;;;11.90;99.90;;;;;;5064550;28;20127;-62
2023/04/16 12:08:03;;;;;;;31.73;10.45;;;11.80;99.90;;;;;;5057193;28;20406;-62
2023/04/16 12:10:33;;;;;;;28.05;9.95;;;11.80;99.90;;;;;;5064009;28;20033;-62
2023/04/16 12:13:16;;;;;;;29.20;11.32;;;11.80;99.90;;;;;;5068280;28;20398;-62
2023/04/16 12:15:55;;;;;;;22.77;9.93;;;11.70;99.90;;;;;;5068629;28;20045;-62
2023/04/16 12:18:25;;;;;;;32.40;10.73;;;11.60;99.90;;;;;;5071353;28;20115;-62
2023/04/16 12:20:51;;;;;;;29.30;11.07;;;11.60;99.90;;;;;;5068959;28;20048;-62
2023/04/16 12:23:28;;;;;;;27.60;10.05;;;11.90;99.90;;;;;;5067279;28;20051;-63
2023/04/16 12:25:54;;;;;;;32.00;11.45;;;12.00;99.90;;;;;;5066662;28;20506;-62
2023/04/16 12:28:39;;;;;;;39.72;11.40;;;12.10;99.90;;;;;;5070584;28;20076;-62
2023/04/16 12:31:05;;;;;;;30.77;11.23;;;12.30;99.90;;;;;;5067237;28;20422;-63
2023/04/16 12:33:31;;;;;;;29.73;9.52;;;12.40;99.90;;;;;;5067316;28;20483;-62